Mid Delta Regional Airport
KGLH : now visible

Airfield :











YOU CAN JOIN US ON...

 
LOGIN :

Register | Disclaimer

   EN    FR    IT 

 









Legend :    VFR   Marginal VFR   IFR   Intensive IFR   Very Intensive IFR
Visi :
Ceiling :
>= 8 km
>= 3000ft
5 to 8 km
1000 to 3000 ft
1500m to 5 km
500 to 1000 ft
800 to 1500m
200 to 500 ft
< 800m
< 200 ft
Symbols :   Thunderstorms  Fog  Heavy snow  Heavy precipitations  Wind > 20 kt






- Airport Elevation : 131 ft
- IATA code : GLH


KGLH - Mid Delta Regional

CURRENT METAR :
  • 260853Z AUTO 12004KT 10SM OVC080 08/04 A3009 RMK AO2 SLP198 T00780039 56006

EXPIRED METARs :
  • 260753Z AUTO 11003KT 10SM OVC090 08/04 A3009 RMK AO2 SLP198 T00780039
  • 260653Z AUTO 11003KT 10SM OVC075 08/05 A3011 RMK AO2 SLP202 T00780050

TAF KGLH
Valid from the 26 at 06:00 until the 27 at 06:00 UTC


260551Z 2606/2706 16004KT P6SM VCSH OVC090
FM261400 16005KT P6SM VCSH OVC045
FM261600 17007KT 6SM -RA OVC030
FM262000 17007KT 4SM -RA OVC006
FM270000 VRB03KT 6SM -DZ BR OVC003



MET'MAP, your aeronautical weather chart ! - Copyright ORBIFLY December 2007 - Disclaimer

ORBIFLY MET'MAP TEAM :

Programming & Development : Alexandra Zaïnal
Concept & original design : Baudouin d'Aumeries
Assistance for programming : Marc-Olivier Méhu
Technical & hardware support : Manuel Goepfert

Contact : metmap@orbifly.com




SOURCES & CREDITS :

   NOAA       Earth
Advisory